sensor_id;sensor_type;location;lat;lon;timestamp;P1;durP1;ratioP1;P2;durP2;ratioP2
16320;SDS011;8269;50.990;4.494;2023-02-28T00:01:20;11.33;;;6.77;;
16320;SDS011;8269;50.990;4.494;2023-02-28T00:03:46;9.87;;;6.37;;
16320;SDS011;8269;50.990;4.494;2023-02-28T00:06:12;8.57;;;6.47;;
16320;SDS011;8269;50.990;4.494;2023-02-28T00:08:38;11.47;;;6.40;;
16320;SDS011;8269;50.990;4.494;2023-02-28T00:11:08;8.47;;;6.60;;
16320;SDS011;8269;50.990;4.494;2023-02-28T00:13:37;10.90;;;6.60;;
16320;SDS011;8269;50.990;4.494;2023-02-28T00:16:08;9.57;;;6.40;;
16320;SDS011;8269;50.990;4.494;2023-02-28T00:18:36;8.53;;;6.87;;
16320;SDS011;8269;50.990;4.494;2023-02-28T00:21:02;10.37;;;6.67;;
16320;SDS011;8269;50.990;4.494;2023-02-28T00:23:28;11.20;;;7.10;;
16320;SDS011;8269;50.990;4.494;2023-02-28T00:25:54;13.43;;;7.70;;
16320;SDS011;8269;50.990;4.494;2023-02-28T00:28:20;10.80;;;7.20;;
16320;SDS011;8269;50.990;4.494;2023-02-28T00:30:46;12.63;;;7.50;;
16320;SDS011;8269;50.990;4.494;2023-02-28T00:33:12;8.80;;;6.70;;
16320;SDS011;8269;50.990;4.494;2023-02-28T00:35:38;13.37;;;7.63;;
16320;SDS011;8269;50.990;4.494;2023-02-28T00:38:03;9.83;;;7.27;;
16320;SDS011;8269;50.990;4.494;2023-02-28T00:40:29;10.33;;;6.90;;
16320;SDS011;8269;50.990;4.494;2023-02-28T00:42:55;11.13;;;7.67;;
16320;SDS011;8269;50.990;4.494;2023-02-28T00:45:21;10.93;;;7.33;;
16320;SDS011;8269;50.990;4.494;2023-02-28T00:47:46;11.30;;;7.30;;
16320;SDS011;8269;50.990;4.494;2023-02-28T00:50:16;9.67;;;7.03;;
16320;SDS011;8269;50.990;4.494;2023-02-28T00:52:43;10.30;;;7.70;;
16320;SDS011;8269;50.990;4.494;2023-02-28T00:55:09;11.90;;;7.83;;
16320;SDS011;8269;50.990;4.494;2023-02-28T00:57:34;10.00;;;7.57;;
16320;SDS011;8269;50.990;4.494;2023-02-28T01:00:00;11.00;;;7.70;;
16320;SDS011;8269;50.990;4.494;2023-02-28T01:02:26;11.93;;;7.33;;
16320;SDS011;8269;50.990;4.494;2023-02-28T01:04:52;11.17;;;7.30;;
16320;SDS011;8269;50.990;4.494;2023-02-28T01:07:17;10.10;;;7.27;;
16320;SDS011;8269;50.990;4.494;2023-02-28T01:09:43;10.63;;;6.93;;
16320;SDS011;8269;50.990;4.494;2023-02-28T01:12:09;10.83;;;7.87;;
16320;SDS011;8269;50.990;4.494;2023-02-28T01:14:34;11.10;;;7.63;;
16320;SDS011;8269;50.990;4.494;2023-02-28T01:17:01;12.03;;;7.90;;
16320;SDS011;8269;50.990;4.494;2023-02-28T01:19:26;12.27;;;7.60;;
16320;SDS011;8269;50.990;4.494;2023-02-28T01:21:52;10.60;;;7.30;;
16320;SDS011;8269;50.990;4.494;2023-02-28T01:24:18;9.97;;;7.73;;
16320;SDS011;8269;50.990;4.494;2023-02-28T01:26:43;11.10;;;8.17;;
16320;SDS011;8269;50.990;4.494;2023-02-28T01:29:09;11.50;;;8.20;;
16320;SDS011;8269;50.990;4.494;2023-02-28T01:31:35;10.00;;;8.23;;
16320;SDS011;8269;50.990;4.494;2023-02-28T01:34:02;10.90;;;8.07;;
16320;SDS011;8269;50.990;4.494;2023-02-28T01:36:28;10.73;;;7.23;;
16320;SDS011;8269;50.990;4.494;2023-02-28T01:38:54;10.43;;;7.77;;
16320;SDS011;8269;50.990;4.494;2023-02-28T01:41:22;10.33;;;7.53;;
16320;SDS011;8269;50.990;4.494;2023-02-28T01:43:58;9.73;;;7.87;;
16320;SDS011;8269;50.990;4.494;2023-02-28T01:46:28;10.53;;;7.80;;
16320;SDS011;8269;50.990;4.494;2023-02-28T01:48:57;11.70;;;8.60;;
16320;SDS011;8269;50.990;4.494;2023-02-28T01:51:36;11.33;;;7.87;;
16320;SDS011;8269;50.990;4.494;2023-02-28T01:54:12;12.80;;;7.80;;
16320;SDS011;8269;50.990;4.494;2023-02-28T01:56:51;13.23;;;8.37;;
16320;SDS011;8269;50.990;4.494;2023-02-28T01:59:39;10.33;;;8.20;;
16320;SDS011;8269;50.990;4.494;2023-02-28T02:02:16;10.97;;;8.20;;
16320;SDS011;8269;50.990;4.494;2023-02-28T02:04:58;12.87;;;8.97;;
16320;SDS011;8269;50.990;4.494;2023-02-28T02:07:36;12.70;;;8.77;;
16320;SDS011;8269;50.990;4.494;2023-02-28T02:15:05;12.67;;;8.40;;
16320;SDS011;8269;50.990;4.494;2023-02-28T02:17:48;13.33;;;8.67;;
16320;SDS011;8269;50.990;4.494;2023-02-28T02:20:27;12.17;;;8.07;;
16320;SDS011;8269;50.990;4.494;2023-02-28T02:34:48;14.17;;;8.90;;
16320;SDS011;8269;50.990;4.494;2023-02-28T02:45:09;13.20;;;8.77;;
16320;SDS011;8269;50.990;4.494;2023-02-28T02:47:39;14.43;;;9.17;;
16320;SDS011;8269;50.990;4.494;2023-02-28T02:50:07;13.67;;;9.27;;
16320;SDS011;8269;50.990;4.494;2023-02-28T02:52:38;12.53;;;8.67;;
16320;SDS011;8269;50.990;4.494;2023-02-28T02:55:09;13.23;;;8.70;;
16320;SDS011;8269;50.990;4.494;2023-02-28T02:57:51;14.10;;;9.00;;
16320;SDS011;8269;50.990;4.494;2023-02-28T03:00:22;12.33;;;9.30;;
16320;SDS011;8269;50.990;4.494;2023-02-28T03:02:51;12.10;;;9.23;;
16320;SDS011;8269;50.990;4.494;2023-02-28T03:05:20;13.40;;;8.83;;
16320;SDS011;8269;50.990;4.494;2023-02-28T03:08:07;12.90;;;8.97;;
16320;SDS011;8269;50.990;4.494;2023-02-28T03:10:37;10.03;;;8.17;;
16320;SDS011;8269;50.990;4.494;2023-02-28T03:21:34;11.33;;;8.90;;
16320;SDS011;8269;50.990;4.494;2023-02-28T03:26:34;14.30;;;8.87;;
16320;SDS011;8269;50.990;4.494;2023-02-28T03:29:23;13.60;;;9.63;;
16320;SDS011;8269;50.990;4.494;2023-02-28T03:32:03;15.33;;;10.27;;
16320;SDS011;8269;50.990;4.494;2023-02-28T03:34:32;11.70;;;9.07;;
16320;SDS011;8269;50.990;4.494;2023-02-28T03:37:03;12.23;;;7.47;;
16320;SDS011;8269;50.990;4.494;2023-02-28T03:39:37;11.67;;;8.97;;
16320;SDS011;8269;50.990;4.494;2023-02-28T03:42:05;12.73;;;9.20;;
16320;SDS011;8269;50.990;4.494;2023-02-28T03:44:35;12.67;;;8.87;;
16320;SDS011;8269;50.990;4.494;2023-02-28T03:47:07;11.93;;;9.10;;
16320;SDS011;8269;50.990;4.494;2023-02-28T03:49:36;15.07;;;8.63;;
16320;SDS011;8269;50.990;4.494;2023-02-28T03:52:13;15.33;;;9.87;;
16320;SDS011;8269;50.990;4.494;2023-02-28T03:54:44;12.37;;;8.80;;
16320;SDS011;8269;50.990;4.494;2023-02-28T03:57:15;15.40;;;9.37;;
16320;SDS011;8269;50.990;4.494;2023-02-28T03:59:47;14.53;;;9.90;;
16320;SDS011;8269;50.990;4.494;2023-02-28T04:02:21;13.30;;;8.37;;
16320;SDS011;8269;50.990;4.494;2023-02-28T04:04:47;14.33;;;8.47;;
16320;SDS011;8269;50.990;4.494;2023-02-28T04:07:13;12.57;;;8.97;;
16320;SDS011;8269;50.990;4.494;2023-02-28T04:09:39;13.53;;;9.43;;
16320;SDS011;8269;50.990;4.494;2023-02-28T04:12:05;14.67;;;10.03;;
16320;SDS011;8269;50.990;4.494;2023-02-28T04:14:31;13.97;;;9.00;;
16320;SDS011;8269;50.990;4.494;2023-02-28T04:16:57;13.23;;;10.00;;
16320;SDS011;8269;50.990;4.494;2023-02-28T04:19:23;12.10;;;9.37;;
16320;SDS011;8269;50.990;4.494;2023-02-28T04:21:50;12.63;;;8.70;;
16320;SDS011;8269;50.990;4.494;2023-02-28T04:24:17;15.10;;;9.53;;
16320;SDS011;8269;50.990;4.494;2023-02-28T04:26:45;15.40;;;10.00;;
16320;SDS011;8269;50.990;4.494;2023-02-28T04:29:13;15.20;;;9.73;;
16320;SDS011;8269;50.990;4.494;2023-02-28T04:31:44;15.60;;;9.73;;
16320;SDS011;8269;50.990;4.494;2023-02-28T04:34:09;15.50;;;10.03;;
16320;SDS011;8269;50.990;4.494;2023-02-28T04:36:35;14.53;;;9.17;;
16320;SDS011;8269;50.990;4.494;2023-02-28T04:39:00;13.13;;;9.60;;
16320;SDS011;8269;50.990;4.494;2023-02-28T04:41:26;15.33;;;10.00;;
16320;SDS011;8269;50.990;4.494;2023-02-28T04:43:52;14.90;;;10.20;;
16320;SDS011;8269;50.990;4.494;2023-02-28T04:46:18;13.43;;;9.57;;
16320;SDS011;8269;50.990;4.494;2023-02-28T04:48:44;13.30;;;9.40;;
16320;SDS011;8269;50.990;4.494;2023-02-28T04:51:11;13.97;;;9.60;;
16320;SDS011;8269;50.990;4.494;2023-02-28T04:53:38;14.93;;;9.53;;
16320;SDS011;8269;50.990;4.494;2023-02-28T04:56:06;11.83;;;9.10;;
16320;SDS011;8269;50.990;4.494;2023-02-28T04:58:32;14.80;;;8.87;;
16320;SDS011;8269;50.990;4.494;2023-02-28T05:01:02;13.20;;;9.20;;
16320;SDS011;8269;50.990;4.494;2023-02-28T05:03:30;15.50;;;8.33;;
16320;SDS011;8269;50.990;4.494;2023-02-28T05:05:56;11.43;;;8.60;;
16320;SDS011;8269;50.990;4.494;2023-02-28T05:08:23;13.80;;;9.23;;
16320;SDS011;8269;50.990;4.494;2023-02-28T05:10:48;12.63;;;9.30;;
16320;SDS011;8269;50.990;4.494;2023-02-28T05:13:14;10.73;;;8.80;;
16320;SDS011;8269;50.990;4.494;2023-02-28T05:15:39;12.83;;;8.80;;
16320;SDS011;8269;50.990;4.494;2023-02-28T05:18:07;10.47;;;8.53;;
16320;SDS011;8269;50.990;4.494;2023-02-28T05:20:33;12.07;;;8.73;;
16320;SDS011;8269;50.990;4.494;2023-02-28T05:22:59;14.57;;;8.90;;
16320;SDS011;8269;50.990;4.494;2023-02-28T05:25:25;12.10;;;8.57;;
16320;SDS011;8269;50.990;4.494;2023-02-28T05:27:50;12.07;;;9.10;;
16320;SDS011;8269;50.990;4.494;2023-02-28T05:30:16;14.10;;;8.33;;
16320;SDS011;8269;50.990;4.494;2023-02-28T05:32:42;10.97;;;8.53;;
16320;SDS011;8269;50.990;4.494;2023-02-28T05:35:08;11.60;;;8.73;;
16320;SDS011;8269;50.990;4.494;2023-02-28T05:37:35;12.20;;;8.83;;
16320;SDS011;8269;50.990;4.494;2023-02-28T05:40:02;14.97;;;9.43;;
16320;SDS011;8269;50.990;4.494;2023-02-28T05:42:31;14.97;;;8.87;;
16320;SDS011;8269;50.990;4.494;2023-02-28T05:44:57;12.63;;;8.10;;
16320;SDS011;8269;50.990;4.494;2023-02-28T05:47:23;11.53;;;8.97;;
16320;SDS011;8269;50.990;4.494;2023-02-28T05:49:49;12.23;;;8.43;;
16320;SDS011;8269;50.990;4.494;2023-02-28T05:52:15;12.97;;;9.00;;
16320;SDS011;8269;50.990;4.494;2023-02-28T05:54:40;14.67;;;8.97;;
16320;SDS011;8269;50.990;4.494;2023-02-28T05:57:06;13.00;;;8.10;;
16320;SDS011;8269;50.990;4.494;2023-02-28T05:59:32;14.17;;;8.57;;
16320;SDS011;8269;50.990;4.494;2023-02-28T06:01:58;11.77;;;7.87;;
16320;SDS011;8269;50.990;4.494;2023-02-28T06:04:23;11.40;;;8.40;;
16320;SDS011;8269;50.990;4.494;2023-02-28T06:06:49;13.60;;;8.03;;
16320;SDS011;8269;50.990;4.494;2023-02-28T06:09:16;13.13;;;8.13;;
16320;SDS011;8269;50.990;4.494;2023-02-28T06:11:42;10.50;;;7.77;;
16320;SDS011;8269;50.990;4.494;2023-02-28T06:14:12;13.93;;;8.07;;
16320;SDS011;8269;50.990;4.494;2023-02-28T06:16:41;12.20;;;8.23;;
16320;SDS011;8269;50.990;4.494;2023-02-28T06:19:08;11.50;;;8.43;;
16320;SDS011;8269;50.990;4.494;2023-02-28T06:21:34;10.17;;;7.57;;
16320;SDS011;8269;50.990;4.494;2023-02-28T06:24:00;12.63;;;7.70;;
16320;SDS011;8269;50.990;4.494;2023-02-28T06:26:26;11.37;;;8.50;;
16320;SDS011;8269;50.990;4.494;2023-02-28T06:28:51;14.17;;;8.60;;
16320;SDS011;8269;50.990;4.494;2023-02-28T06:31:19;13.03;;;8.07;;
16320;SDS011;8269;50.990;4.494;2023-02-28T06:33:45;12.40;;;8.50;;
16320;SDS011;8269;50.990;4.494;2023-02-28T06:36:12;11.67;;;9.13;;
16320;SDS011;8269;50.990;4.494;2023-02-28T06:38:39;11.93;;;7.57;;
16320;SDS011;8269;50.990;4.494;2023-02-28T06:41:05;11.93;;;8.23;;
16320;SDS011;8269;50.990;4.494;2023-02-28T06:43:33;12.90;;;9.07;;
16320;SDS011;8269;50.990;4.494;2023-02-28T06:46:01;12.67;;;8.47;;
16320;SDS011;8269;50.990;4.494;2023-02-28T06:48:28;11.40;;;7.57;;
16320;SDS011;8269;50.990;4.494;2023-02-28T06:51:04;11.33;;;8.13;;
16320;SDS011;8269;50.990;4.494;2023-02-28T06:53:40;10.83;;;7.97;;
16320;SDS011;8269;50.990;4.494;2023-02-28T06:56:08;11.03;;;8.40;;
16320;SDS011;8269;50.990;4.494;2023-02-28T06:58:35;11.23;;;8.10;;
16320;SDS011;8269;50.990;4.494;2023-02-28T07:01:02;11.57;;;8.23;;
16320;SDS011;8269;50.990;4.494;2023-02-28T07:03:29;12.17;;;8.23;;
16320;SDS011;8269;50.990;4.494;2023-02-28T07:05:56;11.00;;;8.77;;
16320;SDS011;8269;50.990;4.494;2023-02-28T07:08:22;11.20;;;8.10;;
16320;SDS011;8269;50.990;4.494;2023-02-28T07:10:51;11.77;;;9.07;;
16320;SDS011;8269;50.990;4.494;2023-02-28T07:13:18;11.33;;;8.00;;
16320;SDS011;8269;50.990;4.494;2023-02-28T07:15:52;11.63;;;7.80;;
16320;SDS011;8269;50.990;4.494;2023-02-28T07:18:22;11.03;;;7.47;;
16320;SDS011;8269;50.990;4.494;2023-02-28T07:20:48;14.90;;;8.00;;
16320;SDS011;8269;50.990;4.494;2023-02-28T07:23:14;11.07;;;7.47;;
16320;SDS011;8269;50.990;4.494;2023-02-28T07:25:40;11.10;;;8.30;;
16320;SDS011;8269;50.990;4.494;2023-02-28T07:28:06;10.30;;;7.10;;
16320;SDS011;8269;50.990;4.494;2023-02-28T07:30:31;9.97;;;7.27;;
16320;SDS011;8269;50.990;4.494;2023-02-28T07:32:57;10.17;;;7.47;;
16320;SDS011;8269;50.990;4.494;2023-02-28T07:35:23;12.60;;;7.70;;
16320;SDS011;8269;50.990;4.494;2023-02-28T07:37:49;14.70;;;8.53;;
16320;SDS011;8269;50.990;4.494;2023-02-28T07:40:15;10.87;;;7.80;;
16320;SDS011;8269;50.990;4.494;2023-02-28T07:42:43;10.37;;;7.30;;
16320;SDS011;8269;50.990;4.494;2023-02-28T07:45:11;9.60;;;7.17;;
16320;SDS011;8269;50.990;4.494;2023-02-28T07:47:37;13.53;;;6.50;;
16320;SDS011;8269;50.990;4.494;2023-02-28T07:50:04;10.97;;;7.73;;
16320;SDS011;8269;50.990;4.494;2023-02-28T07:52:30;9.90;;;7.03;;
16320;SDS011;8269;50.990;4.494;2023-02-28T07:54:57;10.13;;;6.70;;
16320;SDS011;8269;50.990;4.494;2023-02-28T07:57:22;9.70;;;6.60;;
16320;SDS011;8269;50.990;4.494;2023-02-28T07:59:48;7.17;;;5.27;;
16320;SDS011;8269;50.990;4.494;2023-02-28T08:02:14;7.53;;;5.80;;
16320;SDS011;8269;50.990;4.494;2023-02-28T08:04:41;8.70;;;5.60;;
16320;SDS011;8269;50.990;4.494;2023-02-28T08:07:07;8.60;;;5.83;;
16320;SDS011;8269;50.990;4.494;2023-02-28T08:09:33;7.13;;;5.00;;
16320;SDS011;8269;50.990;4.494;2023-02-28T08:11:59;7.40;;;5.30;;
16320;SDS011;8269;50.990;4.494;2023-02-28T08:14:25;10.73;;;5.37;;
16320;SDS011;8269;50.990;4.494;2023-02-28T08:16:51;8.27;;;5.67;;
16320;SDS011;8269;50.990;4.494;2023-02-28T08:19:17;10.53;;;5.67;;
16320;SDS011;8269;50.990;4.494;2023-02-28T08:21:42;10.10;;;5.43;;
16320;SDS011;8269;50.990;4.494;2023-02-28T08:24:08;10.17;;;5.63;;
16320;SDS011;8269;50.990;4.494;2023-02-28T08:26:33;7.27;;;5.33;;
16320;SDS011;8269;50.990;4.494;2023-02-28T08:28:59;7.60;;;4.53;;
16320;SDS011;8269;50.990;4.494;2023-02-28T08:31:26;6.40;;;4.57;;
16320;SDS011;8269;50.990;4.494;2023-02-28T08:33:52;6.70;;;4.63;;
16320;SDS011;8269;50.990;4.494;2023-02-28T08:36:20;14.73;;;6.37;;
16320;SDS011;8269;50.990;4.494;2023-02-28T08:38:46;7.13;;;4.47;;
16320;SDS011;8269;50.990;4.494;2023-02-28T08:41:12;6.33;;;4.53;;
16320;SDS011;8269;50.990;4.494;2023-02-28T08:43:38;6.87;;;4.07;;
16320;SDS011;8269;50.990;4.494;2023-02-28T08:46:05;7.43;;;3.83;;
16320;SDS011;8269;50.990;4.494;2023-02-28T08:48:32;7.07;;;3.93;;
16320;SDS011;8269;50.990;4.494;2023-02-28T08:50:59;5.30;;;3.43;;
16320;SDS011;8269;50.990;4.494;2023-02-28T08:53:26;5.73;;;3.20;;
16320;SDS011;8269;50.990;4.494;2023-02-28T08:56:03;6.47;;;3.73;;
16320;SDS011;8269;50.990;4.494;2023-02-28T08:58:31;7.33;;;3.97;;
16320;SDS011;8269;50.990;4.494;2023-02-28T09:00:58;6.83;;;3.70;;
16320;SDS011;8269;50.990;4.494;2023-02-28T09:03:24;4.73;;;3.70;;
16320;SDS011;8269;50.990;4.494;2023-02-28T09:05:54;6.50;;;3.40;;
16320;SDS011;8269;50.990;4.494;2023-02-28T09:08:20;4.67;;;2.97;;
16320;SDS011;8269;50.990;4.494;2023-02-28T09:10:46;5.27;;;2.93;;
16320;SDS011;8269;50.990;4.494;2023-02-28T09:13:12;5.80;;;3.17;;
16320;SDS011;8269;50.990;4.494;2023-02-28T09:15:38;5.53;;;3.10;;
16320;SDS011;8269;50.990;4.494;2023-02-28T09:18:04;5.53;;;3.00;;
16320;SDS011;8269;50.990;4.494;2023-02-28T09:20:29;5.87;;;3.27;;
16320;SDS011;8269;50.990;4.494;2023-02-28T09:22:56;5.57;;;3.10;;
16320;SDS011;8269;50.990;4.494;2023-02-28T09:25:22;5.67;;;2.80;;
16320;SDS011;8269;50.990;4.494;2023-02-28T09:27:47;4.50;;;2.40;;
16320;SDS011;8269;50.990;4.494;2023-02-28T09:30:13;5.07;;;2.33;;
16320;SDS011;8269;50.990;4.494;2023-02-28T09:32:39;6.50;;;2.83;;
16320;SDS011;8269;50.990;4.494;2023-02-28T09:35:05;3.90;;;2.73;;
16320;SDS011;8269;50.990;4.494;2023-02-28T09:37:31;4.97;;;2.50;;
16320;SDS011;8269;50.990;4.494;2023-02-28T09:39:57;3.93;;;2.20;;
16320;SDS011;8269;50.990;4.494;2023-02-28T09:42:30;4.47;;;2.60;;
16320;SDS011;8269;50.990;4.494;2023-02-28T09:44:58;4.07;;;2.40;;
16320;SDS011;8269;50.990;4.494;2023-02-28T09:47:31;4.73;;;2.50;;
16320;SDS011;8269;50.990;4.494;2023-02-28T09:52:47;3.57;;;2.43;;
16320;SDS011;8269;50.990;4.494;2023-02-28T09:57:59;4.30;;;3.00;;
16320;SDS011;8269;50.990;4.494;2023-02-28T10:00:33;5.93;;;2.73;;
16320;SDS011;8269;50.990;4.494;2023-02-28T10:09:18;5.93;;;2.57;;
16320;SDS011;8269;50.990;4.494;2023-02-28T10:11:40;3.83;;;2.10;;
16320;SDS011;8269;50.990;4.494;2023-02-28T10:14:15;3.47;;;2.20;;
16320;SDS011;8269;50.990;4.494;2023-02-28T10:16:46;6.17;;;2.40;;
16320;SDS011;8269;50.990;4.494;2023-02-28T10:21:56;3.20;;;1.80;;
16320;SDS011;8269;50.990;4.494;2023-02-28T10:24:34;3.60;;;1.83;;
16320;SDS011;8269;50.990;4.494;2023-02-28T10:27:23;3.37;;;2.20;;
16320;SDS011;8269;50.990;4.494;2023-02-28T10:29:55;3.23;;;2.03;;
16320;SDS011;8269;50.990;4.494;2023-02-28T10:32:32;3.57;;;2.20;;
16320;SDS011;8269;50.990;4.494;2023-02-28T10:37:25;3.87;;;1.93;;
16320;SDS011;8269;50.990;4.494;2023-02-28T10:39:52;4.37;;;2.23;;
16320;SDS011;8269;50.990;4.494;2023-02-28T10:42:20;3.90;;;2.20;;
16320;SDS011;8269;50.990;4.494;2023-02-28T10:44:55;3.17;;;1.90;;
16320;SDS011;8269;50.990;4.494;2023-02-28T10:47:29;3.43;;;2.20;;
16320;SDS011;8269;50.990;4.494;2023-02-28T10:49:55;3.67;;;2.07;;
16320;SDS011;8269;50.990;4.494;2023-02-28T10:53:13;3.67;;;2.30;;
16320;SDS011;8269;50.990;4.494;2023-02-28T10:55:19;4.10;;;2.60;;
16320;SDS011;8269;50.990;4.494;2023-02-28T10:57:47;3.67;;;2.17;;
16320;SDS011;8269;50.990;4.494;2023-02-28T11:02:41;4.20;;;2.70;;
16320;SDS011;8269;50.990;4.494;2023-02-28T11:05:23;4.00;;;2.20;;
16320;SDS011;8269;50.990;4.494;2023-02-28T11:07:56;3.43;;;2.30;;
16320;SDS011;8269;50.990;4.494;2023-02-28T11:10:30;4.37;;;2.47;;
16320;SDS011;8269;50.990;4.494;2023-02-28T11:12:59;4.07;;;2.40;;
16320;SDS011;8269;50.990;4.494;2023-02-28T11:15:27;3.60;;;2.20;;
16320;SDS011;8269;50.990;4.494;2023-02-28T11:17:56;3.67;;;2.13;;
16320;SDS011;8269;50.990;4.494;2023-02-28T11:20:23;6.03;;;2.50;;
16320;SDS011;8269;50.990;4.494;2023-02-28T11:22:51;4.03;;;2.20;;
16320;SDS011;8269;50.990;4.494;2023-02-28T11:27:54;3.80;;;1.90;;
16320;SDS011;8269;50.990;4.494;2023-02-28T11:32:56;4.33;;;2.50;;
16320;SDS011;8269;50.990;4.494;2023-02-28T11:38:00;7.17;;;2.37;;
16320;SDS011;8269;50.990;4.494;2023-02-28T11:43:23;4.67;;;2.37;;
16320;SDS011;8269;50.990;4.494;2023-02-28T11:46:04;4.70;;;2.30;;
16320;SDS011;8269;50.990;4.494;2023-02-28T11:48:41;5.50;;;2.10;;
16320;SDS011;8269;50.990;4.494;2023-02-28T11:51:45;3.67;;;1.90;;
16320;SDS011;8269;50.990;4.494;2023-02-28T12:03:15;3.97;;;2.00;;
16320;SDS011;8269;50.990;4.494;2023-02-28T12:08:47;3.30;;;2.00;;
16320;SDS011;8269;50.990;4.494;2023-02-28T12:11:30;3.50;;;2.00;;
16320;SDS011;8269;50.990;4.494;2023-02-28T12:19:56;3.50;;;2.07;;
16320;SDS011;8269;50.990;4.494;2023-02-28T12:22:29;3.53;;;1.87;;
16320;SDS011;8269;50.990;4.494;2023-02-28T12:27:47;3.13;;;2.13;;
16320;SDS011;8269;50.990;4.494;2023-02-28T12:33:12;5.30;;;2.20;;
16320;SDS011;8269;50.990;4.494;2023-02-28T12:35:44;3.83;;;2.17;;
16320;SDS011;8269;50.990;4.494;2023-02-28T12:38:16;4.27;;;2.33;;
16320;SDS011;8269;50.990;4.494;2023-02-28T12:41:05;2.57;;;1.80;;
16320;SDS011;8269;50.990;4.494;2023-02-28T12:43:48;3.87;;;2.20;;
16320;SDS011;8269;50.990;4.494;2023-02-28T12:46:24;3.97;;;2.40;;
16320;SDS011;8269;50.990;4.494;2023-02-28T12:48:57;4.07;;;2.30;;
16320;SDS011;8269;50.990;4.494;2023-02-28T12:51:26;3.17;;;2.20;;
16320;SDS011;8269;50.990;4.494;2023-02-28T12:56:22;4.13;;;2.40;;
16320;SDS011;8269;50.990;4.494;2023-02-28T12:59:16;3.17;;;2.27;;
16320;SDS011;8269;50.990;4.494;2023-02-28T13:04:52;3.03;;;2.20;;
16320;SDS011;8269;50.990;4.494;2023-02-28T13:10:48;7.20;;;2.43;;
16320;SDS011;8269;50.990;4.494;2023-02-28T13:13:28;4.33;;;2.40;;
16320;SDS011;8269;50.990;4.494;2023-02-28T13:16:08;3.63;;;2.37;;
16320;SDS011;8269;50.990;4.494;2023-02-28T13:21:05;4.17;;;2.63;;
16320;SDS011;8269;50.990;4.494;2023-02-28T13:23:37;5.17;;;2.30;;
16320;SDS011;8269;50.990;4.494;2023-02-28T13:26:12;3.37;;;2.37;;
16320;SDS011;8269;50.990;4.494;2023-02-28T13:28:57;5.23;;;2.30;;
16320;SDS011;8269;50.990;4.494;2023-02-28T13:31:25;4.43;;;2.67;;
16320;SDS011;8269;50.990;4.494;2023-02-28T13:38:57;2.90;;;2.30;;
16320;SDS011;8269;50.990;4.494;2023-02-28T13:51:50;4.60;;;2.53;;
16320;SDS011;8269;50.990;4.494;2023-02-28T13:57:05;4.43;;;2.50;;
16320;SDS011;8269;50.990;4.494;2023-02-28T13:59:36;5.63;;;2.80;;
16320;SDS011;8269;50.990;4.494;2023-02-28T14:06:59;3.97;;;2.67;;
16320;SDS011;8269;50.990;4.494;2023-02-28T14:09:30;5.30;;;2.70;;
16320;SDS011;8269;50.990;4.494;2023-02-28T14:11:56;4.20;;;2.73;;
16320;SDS011;8269;50.990;4.494;2023-02-28T14:17:34;3.70;;;2.60;;
16320;SDS011;8269;50.990;4.494;2023-02-28T14:19:54;4.47;;;2.90;;
16320;SDS011;8269;50.990;4.494;2023-02-28T14:27:32;3.83;;;2.90;;
16320;SDS011;8269;50.990;4.494;2023-02-28T14:30:13;4.43;;;2.77;;
16320;SDS011;8269;50.990;4.494;2023-02-28T14:32:43;4.03;;;3.03;;
16320;SDS011;8269;50.990;4.494;2023-02-28T14:37:43;4.87;;;3.07;;
16320;SDS011;8269;50.990;4.494;2023-02-28T14:40:21;4.07;;;2.50;;
16320;SDS011;8269;50.990;4.494;2023-02-28T14:42:54;5.27;;;3.20;;
16320;SDS011;8269;50.990;4.494;2023-02-28T14:45:21;5.40;;;3.37;;
16320;SDS011;8269;50.990;4.494;2023-02-28T14:47:48;4.37;;;3.00;;
16320;SDS011;8269;50.990;4.494;2023-02-28T14:50:18;4.40;;;3.00;;
16320;SDS011;8269;50.990;4.494;2023-02-28T14:52:46;5.13;;;3.10;;
16320;SDS011;8269;50.990;4.494;2023-02-28T14:55:13;5.23;;;3.17;;
16320;SDS011;8269;50.990;4.494;2023-02-28T14:57:41;4.47;;;2.97;;
16320;SDS011;8269;50.990;4.494;2023-02-28T15:00:20;4.33;;;2.90;;
16320;SDS011;8269;50.990;4.494;2023-02-28T15:02:47;4.93;;;3.30;;
16320;SDS011;8269;50.990;4.494;2023-02-28T15:07:44;6.53;;;2.97;;
16320;SDS011;8269;50.990;4.494;2023-02-28T15:12:45;4.93;;;2.90;;
16320;SDS011;8269;50.990;4.494;2023-02-28T15:15:14;3.97;;;2.83;;
16320;SDS011;8269;50.990;4.494;2023-02-28T15:17:41;4.17;;;2.70;;
16320;SDS011;8269;50.990;4.494;2023-02-28T15:20:10;4.90;;;3.07;;
16320;SDS011;8269;50.990;4.494;2023-02-28T15:22:37;6.20;;;2.87;;
16320;SDS011;8269;50.990;4.494;2023-02-28T15:25:04;4.20;;;2.97;;
16320;SDS011;8269;50.990;4.494;2023-02-28T15:27:33;7.80;;;3.53;;
16320;SDS011;8269;50.990;4.494;2023-02-28T15:30:01;6.17;;;3.20;;
16320;SDS011;8269;50.990;4.494;2023-02-28T15:34:56;4.67;;;2.90;;
16320;SDS011;8269;50.990;4.494;2023-02-28T15:39:53;4.70;;;3.20;;
16320;SDS011;8269;50.990;4.494;2023-02-28T15:42:20;5.70;;;3.30;;
16320;SDS011;8269;50.990;4.494;2023-02-28T15:44:46;6.27;;;3.00;;
16320;SDS011;8269;50.990;4.494;2023-02-28T15:47:16;4.73;;;3.40;;
16320;SDS011;8269;50.990;4.494;2023-02-28T15:52:16;4.53;;;3.27;;
16320;SDS011;8269;50.990;4.494;2023-02-28T15:54:43;4.77;;;3.17;;
16320;SDS011;8269;50.990;4.494;2023-02-28T15:57:20;8.60;;;3.47;;
16320;SDS011;8269;50.990;4.494;2023-02-28T15:59:58;4.37;;;2.83;;
16320;SDS011;8269;50.990;4.494;2023-02-28T16:02:33;7.23;;;3.50;;
16320;SDS011;8269;50.990;4.494;2023-02-28T16:07:32;5.33;;;2.97;;
16320;SDS011;8269;50.990;4.494;2023-02-28T16:09:58;4.77;;;3.13;;
16320;SDS011;8269;50.990;4.494;2023-02-28T16:12:26;5.07;;;3.03;;
16320;SDS011;8269;50.990;4.494;2023-02-28T16:14:53;4.43;;;3.00;;
16320;SDS011;8269;50.990;4.494;2023-02-28T16:17:20;5.70;;;3.17;;
16320;SDS011;8269;50.990;4.494;2023-02-28T16:19:47;7.37;;;3.70;;
16320;SDS011;8269;50.990;4.494;2023-02-28T16:22:14;7.77;;;3.50;;
16320;SDS011;8269;50.990;4.494;2023-02-28T16:24:40;6.17;;;3.20;;
16320;SDS011;8269;50.990;4.494;2023-02-28T16:27:06;5.47;;;3.33;;
16320;SDS011;8269;50.990;4.494;2023-02-28T16:29:34;4.87;;;3.27;;
16320;SDS011;8269;50.990;4.494;2023-02-28T16:32:01;4.67;;;3.43;;
16320;SDS011;8269;50.990;4.494;2023-02-28T16:34:27;7.93;;;3.43;;
16320;SDS011;8269;50.990;4.494;2023-02-28T16:36:53;5.40;;;3.10;;
16320;SDS011;8269;50.990;4.494;2023-02-28T16:39:19;5.33;;;3.23;;
16320;SDS011;8269;50.990;4.494;2023-02-28T16:41:46;5.37;;;3.10;;
16320;SDS011;8269;50.990;4.494;2023-02-28T16:44:14;5.43;;;3.60;;
16320;SDS011;8269;50.990;4.494;2023-02-28T16:46:48;7.20;;;3.50;;
16320;SDS011;8269;50.990;4.494;2023-02-28T16:49:14;8.13;;;3.20;;
16320;SDS011;8269;50.990;4.494;2023-02-28T16:51:40;4.23;;;2.90;;
16320;SDS011;8269;50.990;4.494;2023-02-28T16:54:09;5.87;;;3.90;;
16320;SDS011;8269;50.990;4.494;2023-02-28T16:56:35;7.33;;;3.43;;
16320;SDS011;8269;50.990;4.494;2023-02-28T16:59:02;5.90;;;3.13;;
16320;SDS011;8269;50.990;4.494;2023-02-28T17:01:28;5.57;;;3.57;;
16320;SDS011;8269;50.990;4.494;2023-02-28T17:03:55;4.37;;;3.10;;
16320;SDS011;8269;50.990;4.494;2023-02-28T17:06:22;6.20;;;3.40;;
16320;SDS011;8269;50.990;4.494;2023-02-28T17:08:49;5.30;;;3.33;;
16320;SDS011;8269;50.990;4.494;2023-02-28T17:11:16;6.00;;;3.30;;
16320;SDS011;8269;50.990;4.494;2023-02-28T17:13:42;4.60;;;3.10;;
16320;SDS011;8269;50.990;4.494;2023-02-28T17:18:46;8.17;;;3.80;;
16320;SDS011;8269;50.990;4.494;2023-02-28T17:21:15;8.47;;;5.33;;
16320;SDS011;8269;50.990;4.494;2023-02-28T17:23:44;9.97;;;4.90;;
16320;SDS011;8269;50.990;4.494;2023-02-28T17:29:03;6.23;;;4.23;;
16320;SDS011;8269;50.990;4.494;2023-02-28T17:31:31;8.03;;;4.23;;
16320;SDS011;8269;50.990;4.494;2023-02-28T17:34:03;6.03;;;4.60;;
16320;SDS011;8269;50.990;4.494;2023-02-28T17:36:29;6.87;;;4.07;;
16320;SDS011;8269;50.990;4.494;2023-02-28T17:38:55;6.87;;;3.97;;
16320;SDS011;8269;50.990;4.494;2023-02-28T17:41:23;7.83;;;4.10;;